Time;durP1;ratioP1;P1;durP2;ratioP2;P2;SDS_P1;SDS_P2;PMS_P1;PMS_P2;Temp;Humidity;BMP_temperature;BMP_pressure;BME280_temperature;BME280_humidity;BME280_pressure;Samples;Min_cycle;Max_cycle;Signal;HPM_P1;HPM_P2
2023/10/16 00:01:10;;;;;;;2.05;1.95;;;4.40;99.20;;;;;;5092434;28;20212;-69
2023/10/16 00:03:41;;;;;;;3.45;1.13;;;4.40;98.80;;;;;;5092576;28;20210;-69
2023/10/16 00:06:08;;;;;;;2.95;1.52;;;4.40;98.80;;;;;;5091009;28;20565;-69
2023/10/16 00:08:35;;;;;;;2.13;1.98;;;4.30;99.20;;;;;;5090885;28;20679;-69
2023/10/16 00:11:04;;;;;;;2.97;1.80;;;4.30;99.30;;;;;;5092160;28;20203;-69
2023/10/16 00:13:35;;;;;;;2.70;1.70;;;4.20;99.30;;;;;;5092950;28;20237;-69
2023/10/16 00:16:03;;;;;;;2.55;1.38;;;4.10;99.60;;;;;;5091786;27;20207;-69
2023/10/16 00:18:33;;;;;;;1.20;1.08;;;4.10;99.80;;;;;;5092484;28;20228;-69
2023/10/16 00:21:03;;;;;;;1.17;1.08;;;4.10;99.80;;;;;;5092437;28;20203;-69
2023/10/16 00:23:31;;;;;;;1.23;1.13;;;4.10;99.90;;;;;;5092563;28;20202;-69
2023/10/16 00:25:58;;;;;;;1.38;1.10;;;4.10;99.90;;;;;;5092737;28;20701;-69
2023/10/16 00:28:26;;;;;;;1.40;1.30;;;4.00;99.90;;;;;;5091959;28;20206;-69
2023/10/16 00:30:53;;;;;;;1.88;1.60;;;4.10;99.90;;;;;;5092292;28;20704;-69
2023/10/16 00:33:20;;;;;;;1.80;1.70;;;4.00;99.70;;;;;;5092604;28;20303;-69
2023/10/16 00:35:48;;;;;;;2.10;1.90;;;3.90;99.40;;;;;;5092192;28;20195;-69
2023/10/16 00:38:15;;;;;;;3.10;1.90;;;3.80;98.60;;;;;;5092143;28;20222;-69
2023/10/16 00:40:51;;;;;;;2.42;2.00;;;3.70;98.60;;;;;;5091675;28;20203;-69
2023/10/16 00:43:20;;;;;;;1.80;1.70;;;3.70;98.70;;;;;;5092032;28;20677;-69
2023/10/16 00:45:50;;;;;;;1.80;1.38;;;3.70;99.00;;;;;;5092899;28;20203;-69
2023/10/16 00:48:18;;;;;;;12.48;3.50;;;3.70;99.40;;;;;;5094071;27;21571;-68
2023/10/16 00:50:48;;;;;;;1.58;1.48;;;3.70;99.20;;;;;;5095543;27;20209;-69
2023/10/16 00:53:20;;;;;;;1.85;1.42;;;3.70;99.20;;;;;;5096295;27;20608;-69
2023/10/16 00:55:47;;;;;;;2.20;2.00;;;3.70;99.60;;;;;;5095760;27;20222;-69
2023/10/16 00:58:14;;;;;;;1.33;1.23;;;3.50;99.20;;;;;;5095323;27;20234;-69
2023/10/16 01:00:45;;;;;;;1.98;1.48;;;3.50;99.40;;;;;;5095391;27;20213;-69
2023/10/16 01:03:14;;;;;;;1.55;1.45;;;3.40;99.50;;;;;;5095551;27;20201;-69
2023/10/16 01:05:42;;;;;;;1.45;1.35;;;3.40;99.70;;;;;;5095710;27;20831;-69
2023/10/16 01:08:09;;;;;;;0.90;0.90;;;3.40;99.40;;;;;;5094593;27;20264;-69
2023/10/16 01:10:40;;;;;;;2.05;1.90;;;3.40;99.80;;;;;;5095171;27;20226;-69
2023/10/16 01:13:11;;;;;;;1.95;1.35;;;3.40;99.90;;;;;;5095313;27;20264;-69
2023/10/16 01:15:46;;;;;;;1.35;1.25;;;3.40;99.80;;;;;;5095929;27;20255;-69
2023/10/16 01:18:18;;;;;;;1.30;1.20;;;3.40;99.90;;;;;;5095674;27;20225;-69
2023/10/16 01:20:48;;;;;;;1.20;1.10;;;3.50;99.90;;;;;;5095987;27;20209;-69
2023/10/16 01:23:22;;;;;;;2.90;1.88;;;3.50;99.90;;;;;;5095615;27;20216;-69
2023/10/16 01:25:49;;;;;;;1.42;1.35;;;3.40;99.90;;;;;;5095280;27;20206;-69
2023/10/16 01:28:17;;;;;;;1.45;1.35;;;3.40;99.90;;;;;;5094300;27;20199;-69
2023/10/16 01:30:47;;;;;;;1.50;1.40;;;3.30;99.90;;;;;;5095655;27;20602;-69
2023/10/16 01:33:16;;;;;;;4.15;2.45;;;3.30;99.90;;;;;;5095492;27;20206;-70
2023/10/16 01:35:43;;;;;;;8.45;2.30;;;3.30;99.70;;;;;;5095478;27;20203;-70
2023/10/16 01:38:16;;;;;;;1.63;1.52;;;3.30;99.90;;;;;;5094608;27;20272;-68
2023/10/16 01:41:02;;;;;;;2.17;1.67;;;3.30;99.90;;;;;;5093983;27;20203;-70
2023/10/16 01:43:31;;;;;;;1.60;1.50;;;3.30;99.80;;;;;;5094762;27;20927;-68
2023/10/16 01:46:01;;;;;;;1.77;1.65;;;3.20;99.90;;;;;;5094694;27;20711;-68
2023/10/16 01:48:29;;;;;;;4.35;1.52;;;3.20;99.90;;;;;;5095575;27;20285;-68
2023/10/16 01:50:57;;;;;;;2.75;1.85;;;3.20;99.90;;;;;;5095698;27;20209;-68
2023/10/16 01:53:26;;;;;;;1.33;1.23;;;3.20;99.90;;;;;;5092856;27;20840;-68
2023/10/16 01:55:55;;;;;;;1.77;1.67;;;3.20;99.90;;;;;;5094573;27;20311;-68
2023/10/16 01:58:30;;;;;;;1.75;1.63;;;3.10;99.90;;;;;;5094477;27;20335;-68
2023/10/16 02:00:57;;;;;;;3.53;1.60;;;3.10;99.90;;;;;;5094577;27;20294;-68
2023/10/16 02:03:25;;;;;;;1.60;1.50;;;3.10;99.90;;;;;;5094461;27;20636;-68
2023/10/16 02:05:53;;;;;;;2.20;1.95;;;3.20;99.90;;;;;;5094691;27;20205;-69
2023/10/16 02:08:21;;;;;;;2.55;1.48;;;3.20;99.90;;;;;;5094656;27;20702;-68
2023/10/16 02:10:50;;;;;;;1.33;1.20;;;3.10;99.90;;;;;;5094532;27;20703;-68
2023/10/16 02:13:19;;;;;;;2.42;1.77;;;3.20;99.90;;;;;;5094961;27;20214;-68
2023/10/16 02:15:47;;;;;;;2.15;1.40;;;3.10;99.90;;;;;;5094973;27;20206;-69
2023/10/16 02:18:22;;;;;;;1.67;1.45;;;3.00;99.90;;;;;;5093891;27;20338;-68
2023/10/16 02:20:50;;;;;;;2.10;1.90;;;3.00;99.60;;;;;;5093821;27;20623;-70
2023/10/16 02:23:18;;;;;;;1.90;1.75;;;3.10;99.90;;;;;;5094678;27;20204;-68
2023/10/16 02:25:46;;;;;;;3.03;1.80;;;3.10;99.90;;;;;;5094331;27;20202;-69
2023/10/16 02:28:14;;;;;;;1.40;1.30;;;3.00;99.90;;;;;;5093342;27;20198;-69
2023/10/16 02:30:42;;;;;;;1.85;1.67;;;3.10;99.90;;;;;;5094683;27;20641;-69
2023/10/16 02:33:14;;;;;;;1.83;1.73;;;3.00;99.90;;;;;;5093779;27;20210;-69
2023/10/16 02:35:44;;;;;;;4.82;3.50;;;3.00;99.90;;;;;;5093314;27;20584;-69
2023/10/16 02:38:14;;;;;;;4.03;3.22;;;2.90;99.90;;;;;;5093212;27;21038;-69
2023/10/16 02:40:43;;;;;;;4.22;3.58;;;2.80;99.90;;;;;;5094273;27;20202;-69
2023/10/16 02:43:18;;;;;;;3.45;3.15;;;2.80;99.90;;;;;;5093547;27;20298;-69
2023/10/16 02:45:55;;;;;;;2.70;2.50;;;2.80;99.90;;;;;;5094573;27;20213;-69
2023/10/16 02:48:23;;;;;;;2.25;1.85;;;2.70;99.90;;;;;;5094844;27;20202;-69
2023/10/16 02:50:54;;;;;;;2.40;1.48;;;2.70;99.90;;;;;;5094205;27;20202;-69
2023/10/16 02:53:22;;;;;;;2.25;2.08;;;2.70;99.90;;;;;;5093804;27;20943;-69
2023/10/16 02:55:57;;;;;;;3.05;1.30;;;2.70;99.90;;;;;;5093232;27;20646;-69
2023/10/16 02:58:26;;;;;;;1.60;1.50;;;2.70;99.90;;;;;;5093092;27;20207;-70
2023/10/16 03:00:56;;;;;;;1.77;1.67;;;2.60;99.90;;;;;;5093979;27;20754;-69
2023/10/16 03:03:24;;;;;;;2.13;1.35;;;2.70;99.90;;;;;;5093287;27;20227;-69
2023/10/16 03:05:52;;;;;;;1.20;1.10;;;2.70;99.90;;;;;;5094032;27;20210;-69
2023/10/16 03:08:22;;;;;;;1.90;1.75;;;2.70;99.90;;;;;;5093131;27;20217;-69
2023/10/16 03:10:49;;;;;;;1.58;1.48;;;2.70;99.90;;;;;;5092854;27;20208;-69
2023/10/16 03:13:18;;;;;;;1.52;1.42;;;2.70;99.90;;;;;;5093049;27;20206;-69
2023/10/16 03:15:47;;;;;;;1.80;1.52;;;2.70;99.90;;;;;;5093405;27;20221;-69
2023/10/16 03:18:22;;;;;;;2.00;1.63;;;2.70;99.90;;;;;;5092047;27;20203;-69
2023/10/16 03:21:00;;;;;;;1.58;1.48;;;2.70;99.90;;;;;;5094652;27;20214;-69
2023/10/16 03:23:28;;;;;;;1.63;1.50;;;2.90;99.90;;;;;;5092460;27;20267;-69
2023/10/16 03:25:56;;;;;;;1.40;1.30;;;2.90;99.90;;;;;;5093502;27;20221;-69
2023/10/16 03:28:23;;;;;;;5.35;1.88;;;2.80;99.90;;;;;;5092882;27;20404;-69
2023/10/16 03:30:50;;;;;;;1.85;1.75;;;2.70;99.90;;;;;;5093059;27;20210;-69
2023/10/16 03:33:18;;;;;;;2.90;2.65;;;2.70;99.90;;;;;;5092258;27;20234;-69
2023/10/16 03:35:49;;;;;;;2.10;1.80;;;2.60;99.90;;;;;;5093356;27;20262;-69
2023/10/16 03:38:24;;;;;;;1.73;1.38;;;2.60;99.90;;;;;;5092491;27;20796;-69
2023/10/16 03:40:52;;;;;;;1.60;1.50;;;2.70;99.90;;;;;;5093397;27;20279;-69
2023/10/16 03:43:20;;;;;;;3.88;1.45;;;2.70;99.90;;;;;;5092718;27;20217;-69
2023/10/16 03:45:47;;;;;;;2.17;2.05;;;2.60;99.90;;;;;;5093280;27;20203;-69
2023/10/16 03:48:17;;;;;;;2.00;1.85;;;2.60;99.90;;;;;;5091281;27;20217;-69
2023/10/16 03:50:46;;;;;;;1.73;1.63;;;2.60;99.90;;;;;;5092094;27;20199;-69
2023/10/16 03:53:14;;;;;;;2.22;1.83;;;2.60;99.90;;;;;;5093102;27;20242;-69
2023/10/16 03:55:43;;;;;;;2.83;1.92;;;2.60;99.90;;;;;;5092252;27;20203;-69
2023/10/16 03:58:10;;;;;;;2.17;1.98;;;2.60;99.90;;;;;;5092590;28;20203;-69
2023/10/16 04:00:50;;;;;;;2.25;1.73;;;2.60;99.90;;;;;;5092613;27;20260;-69
2023/10/16 04:03:18;;;;;;;4.88;2.67;;;2.60;99.90;;;;;;5092699;28;20202;-69
2023/10/16 04:05:47;;;;;;;2.08;1.98;;;2.70;99.90;;;;;;5093183;28;20217;-69
2023/10/16 04:08:14;;;;;;;2.38;1.75;;;2.60;99.90;;;;;;5091839;28;20280;-69
2023/10/16 04:10:46;;;;;;;2.45;2.25;;;2.60;99.90;;;;;;5092606;28;20233;-69
2023/10/16 04:13:14;;;;;;;1.88;1.73;;;2.50;99.90;;;;;;5092406;28;20203;-69
2023/10/16 04:18:32;;;;;;;4.88;2.30;;;2.40;99.90;;;;;;5091887;28;20325;-69
2023/10/16 04:23:56;;;;;;;3.25;2.20;;;2.50;99.90;;;;;;5094538;27;20225;-69
2023/10/16 04:26:30;;;;;;;2.55;2.35;;;2.50;99.90;;;;;;5095621;27;20603;-69
2023/10/16 04:31:54;;;;;;;3.00;2.10;;;2.40;99.90;;;;;;5096998;27;20252;-69
2023/10/16 04:34:24;;;;;;;4.13;3.20;;;2.40;99.90;;;;;;5096474;27;20577;-69
2023/10/16 04:36:54;;;;;;;2.25;2.03;;;2.30;99.90;;;;;;5095827;27;20212;-68
2023/10/16 04:45:24;;;;;;;2.60;2.40;;;2.10;99.90;;;;;;5096884;27;20209;-68
2023/10/16 04:47:56;;;;;;;3.30;2.45;;;2.10;99.90;;;;;;5097382;27;20681;-68
2023/10/16 04:50:29;;;;;;;2.72;2.47;;;2.10;99.90;;;;;;5097740;27;20222;-68
2023/10/16 04:53:11;;;;;;;5.43;4.07;;;2.10;99.90;;;;;;5097166;27;20206;-68
2023/10/16 04:55:54;;;;;;;2.83;2.40;;;2.10;99.90;;;;;;5095835;27;20233;-68
2023/10/16 05:01:54;;;;;;;2.55;2.25;;;2.10;99.90;;;;;;5082101;27;20538;-73
2023/10/16 05:04:59;;;;;;;2.92;2.72;;;2.10;99.90;;;;;;5094631;27;20681;-72
2023/10/16 05:07:45;;;;;;;4.82;3.53;;;2.10;99.90;;;;;;5095137;27;20208;-72
2023/10/16 05:10:17;;;;;;;3.30;3.00;;;2.10;99.90;;;;;;5095561;27;20555;-72
2023/10/16 05:15:41;;;;;;;3.42;2.33;;;2.00;99.90;;;;;;5094260;27;20248;-73
2023/10/16 05:18:20;;;;;;;3.53;2.75;;;2.00;99.90;;;;;;5095151;27;20206;-72
2023/10/16 05:21:15;;;;;;;3.50;3.20;;;2.00;99.90;;;;;;5095964;27;20198;-72
2023/10/16 06:15:51;;;;;;;3.15;2.95;;;2.80;99.90;;;;;;5093779;27;20199;-73
2023/10/16 06:18:18;;;;;;;2.38;2.28;;;2.90;99.90;;;;;;5093293;27;20229;-72
2023/10/16 06:20:44;;;;;;;4.00;3.58;;;3.00;99.90;;;;;;5093567;27;20202;-73
2023/10/16 06:23:11;;;;;;;3.30;2.38;;;3.10;99.90;;;;;;5093760;27;20213;-73
2023/10/16 06:25:38;;;;;;;3.13;2.83;;;3.20;99.90;;;;;;5093271;27;20560;-73
2023/10/16 06:28:11;;;;;;;3.85;3.00;;;3.10;99.90;;;;;;5094583;27;20683;-72
2023/10/16 06:30:38;;;;;;;2.95;2.47;;;3.10;99.90;;;;;;5093248;27;20309;-73
2023/10/16 06:33:07;;;;;;;2.92;2.67;;;3.00;99.90;;;;;;5094042;27;20206;-73
2023/10/16 06:35:34;;;;;;;2.53;2.33;;;3.00;99.90;;;;;;5093061;27;20219;-73
2023/10/16 06:38:01;;;;;;;2.40;2.05;;;3.00;99.90;;;;;;5092613;27;20199;-73
2023/10/16 06:40:32;;;;;;;3.00;2.78;;;3.10;99.90;;;;;;5094045;27;20213;-73
2023/10/16 06:43:10;;;;;;;2.65;2.13;;;3.10;99.90;;;;;;5092849;27;20216;-72
2023/10/16 06:45:41;;;;;;;2.97;2.60;;;3.20;99.90;;;;;;5093487;27;20210;-72
2023/10/16 06:48:15;;;;;;;1.58;1.48;;;3.30;99.90;;;;;;5093405;27;20210;-70
2023/10/16 06:50:53;;;;;;;3.03;2.13;;;3.40;99.90;;;;;;5093807;27;20467;-71
2023/10/16 06:53:20;;;;;;;5.47;2.55;;;3.50;99.90;;;;;;5094369;27;20207;-71
2023/10/16 06:55:50;;;;;;;4.28;3.47;;;3.60;99.90;;;;;;5092751;27;20502;-71
2023/10/16 06:58:18;;;;;;;3.55;2.20;;;3.70;99.90;;;;;;5092013;27;20575;-71
2023/10/16 07:00:47;;;;;;;2.63;2.42;;;3.90;99.90;;;;;;5093276;27;20206;-72
2023/10/16 07:03:16;;;;;;;2.80;2.40;;;4.00;99.90;;;;;;5093832;27;20210;-71
2023/10/16 07:05:48;;;;;;;3.92;2.45;;;4.00;99.90;;;;;;5092867;27;20301;-71
2023/10/16 07:08:17;;;;;;;2.90;2.70;;;4.00;99.90;;;;;;5092379;27;20787;-71
2023/10/16 07:10:48;;;;;;;2.25;2.13;;;4.10;99.90;;;;;;5091519;27;20219;-71
2023/10/16 07:13:26;;;;;;;2.28;2.08;;;4.20;99.90;;;;;;5092803;27;20203;-71
2023/10/16 07:15:56;;;;;;;2.58;2.38;;;4.20;99.90;;;;;;5092385;27;20261;-73
2023/10/16 07:18:25;;;;;;;2.75;2.42;;;4.30;99.90;;;;;;5091375;27;20917;-72
2023/10/16 07:21:07;;;;;;;2.75;2.55;;;4.30;99.90;;;;;;5091282;27;20206;-72
2023/10/16 07:23:36;;;;;;;3.25;2.70;;;4.50;99.90;;;;;;5091675;27;20683;-71
2023/10/16 07:26:06;;;;;;;3.92;3.45;;;4.60;99.90;;;;;;5091228;27;20671;-72
2023/10/16 07:28:33;;;;;;;3.65;1.98;;;4.80;99.90;;;;;;5091624;27;20210;-71
2023/10/16 07:31:02;;;;;;;2.35;1.42;;;4.90;99.90;;;;;;5091407;27;20233;-72
2023/10/16 07:33:30;;;;;;;2.90;2.35;;;5.10;99.90;;;;;;5091837;27;20203;-71
2023/10/16 07:35:59;;;;;;;5.68;2.05;;;5.30;99.90;;;;;;5091940;27;20209;-72
2023/10/16 07:38:27;;;;;;;2.08;1.42;;;5.30;99.80;;;;;;5092604;27;20601;-72
2023/10/16 07:40:55;;;;;;;2.42;2.33;;;5.40;99.80;;;;;;5092604;27;20651;-72
2023/10/16 07:43:26;;;;;;;5.13;2.90;;;5.50;99.80;;;;;;5090950;27;20232;-72
2023/10/16 07:46:07;;;;;;;3.15;2.38;;;5.60;99.50;;;;;;5092147;27;20229;-73
2023/10/16 07:48:37;;;;;;;2.63;2.42;;;5.60;99.20;;;;;;5091193;27;20202;-71
2023/10/16 07:51:06;;;;;;;5.85;2.25;;;5.70;98.70;;;;;;5091642;27;20237;-72
2023/10/16 07:53:34;;;;;;;3.90;2.13;;;5.80;98.80;;;;;;5092029;27;20210;-72
2023/10/16 07:56:02;;;;;;;2.35;1.60;;;5.90;98.90;;;;;;5091229;28;20666;-72
2023/10/16 07:58:33;;;;;;;2.13;1.88;;;6.00;98.80;;;;;;5091543;28;20217;-72
2023/10/16 08:01:17;;;;;;;2.70;2.50;;;6.20;98.60;;;;;;5092363;27;20203;-72
2023/10/16 08:03:48;;;;;;;2.60;2.40;;;6.30;97.90;;;;;;5090502;27;20206;-72
2023/10/16 08:06:23;;;;;;;4.20;3.00;;;6.30;97.40;;;;;;5091161;28;20203;-72
2023/10/16 08:08:50;;;;;;;4.20;2.00;;;6.50;97.60;;;;;;5090476;27;20623;-72
2023/10/16 08:11:20;;;;;;;3.20;1.98;;;6.50;97.30;;;;;;5092358;28;20316;-72
2023/10/16 08:13:52;;;;;;;4.05;3.53;;;6.70;97.20;;;;;;5091898;27;20211;-71
2023/10/16 08:16:21;;;;;;;1.90;1.80;;;6.80;97.00;;;;;;5091038;28;20214;-72
2023/10/16 08:18:50;;;;;;;6.72;2.60;;;6.90;97.10;;;;;;5091394;28;20355;-72
2023/10/16 08:21:24;;;;;;;3.83;2.33;;;7.00;96.60;;;;;;5092324;28;20520;-72
2023/10/16 08:23:53;;;;;;;2.50;2.30;;;7.20;96.00;;;;;;5092528;28;20210;-72
2023/10/16 08:26:29;;;;;;;2.47;2.28;;;7.30;95.60;;;;;;5091839;28;20209;-72
2023/10/16 08:28:56;;;;;;;2.45;2.03;;;7.40;95.10;;;;;;5091722;28;20214;-72
2023/10/16 08:31:26;;;;;;;3.40;2.45;;;7.60;94.90;;;;;;5091878;28;20228;-72
2023/10/16 08:33:55;;;;;;;2.13;1.98;;;7.70;94.40;;;;;;5092076;28;20221;-72
2023/10/16 08:36:22;;;;;;;1.90;1.80;;;7.80;94.20;;;;;;5091543;28;20198;-72
2023/10/16 08:38:55;;;;;;;2.67;2.40;;;7.80;93.70;;;;;;5092932;28;20199;-72
2023/10/16 08:41:30;;;;;;;1.90;1.80;;;7.80;93.60;;;;;;5092338;28;20205;-72
2023/10/16 08:44:04;;;;;;;1.98;1.80;;;7.90;93.70;;;;;;5092334;28;20214;-72
2023/10/16 08:46:32;;;;;;;4.45;1.83;;;8.00;93.60;;;;;;5091580;28;20213;-72
2023/10/16 08:49:02;;;;;;;1.83;1.60;;;8.10;93.60;;;;;;5091690;28;20294;-72
2023/10/16 08:51:30;;;;;;;2.45;1.92;;;8.20;93.00;;;;;;5092057;28;20230;-72
2023/10/16 08:54:01;;;;;;;2.65;2.00;;;8.40;92.90;;;;;;5091581;28;20212;-72
2023/10/16 08:56:29;;;;;;;2.35;2.15;;;8.40;93.00;;;;;;5091286;28;20791;-72
2023/10/16 08:58:57;;;;;;;2.38;2.17;;;8.50;92.70;;;;;;5092287;28;20211;-72
2023/10/16 09:01:28;;;;;;;2.27;1.90;;;8.50;92.20;;;;;;5092116;28;20683;-72
2023/10/16 09:04:05;;;;;;;2.60;2.40;;;8.50;91.80;;;;;;5092805;28;20617;-72
2023/10/16 09:06:36;;;;;;;1.70;1.60;;;8.50;91.70;;;;;;5091444;28;20883;-71
2023/10/16 09:09:11;;;;;;;2.70;2.30;;;8.60;91.80;;;;;;5094327;27;20210;-71
2023/10/16 09:11:39;;;;;;;1.70;1.60;;;8.70;91.30;;;;;;5095765;27;20659;-72
2023/10/16 09:14:07;;;;;;;1.90;1.70;;;8.80;91.10;;;;;;5095552;27;20617;-72
2023/10/16 09:16:34;;;;;;;3.30;2.00;;;8.80;90.80;;;;;;5094927;27;20623;-72
2023/10/16 09:19:07;;;;;;;2.30;1.97;;;8.90;91.40;;;;;;5095243;27;20826;-72
2023/10/16 09:21:38;;;;;;;3.37;1.93;;;8.90;90.70;;;;;;5095952;27;21050;-72
2023/10/16 09:24:07;;;;;;;1.90;1.70;;;9.00;91.10;;;;;;5096170;27;20624;-72
2023/10/16 09:26:38;;;;;;;2.33;2.13;;;9.00;90.90;;;;;;5094562;27;20632;-72
2023/10/16 09:29:13;;;;;;;2.07;1.87;;;9.10;91.10;;;;;;5095370;27;22214;-72
2023/10/16 09:31:43;;;;;;;2.23;2.03;;;9.20;91.10;;;;;;5094796;27;20660;-72
2023/10/16 09:34:14;;;;;;;1.73;1.50;;;9.30;90.60;;;;;;5093290;27;20620;-72
2023/10/16 09:36:46;;;;;;;2.00;1.87;;;9.30;90.80;;;;;;5093993;27;21242;-72
2023/10/16 09:39:19;;;;;;;2.30;2.10;;;9.40;91.00;;;;;;5094253;27;20624;-72
2023/10/16 09:41:49;;;;;;;1.60;1.40;;;9.50;90.80;;;;;;5094699;27;20620;-72
2023/10/16 09:44:36;;;;;;;1.87;1.70;;;9.60;90.50;;;;;;5095538;27;20706;-72
2023/10/16 09:47:25;;;;;;;3.07;1.77;;;9.60;90.60;;;;;;5094408;27;20634;-72
2023/10/16 09:49:53;;;;;;;1.60;1.30;;;9.60;90.50;;;;;;5094598;27;20632;-72
2023/10/16 09:52:21;;;;;;;1.60;1.50;;;9.70;88.90;;;;;;5094614;27;20616;-72
2023/10/16 09:54:49;;;;;;;1.77;1.67;;;9.80;89.00;;;;;;5094416;27;20626;-72
2023/10/16 09:57:20;;;;;;;1.60;1.33;;;9.80;88.50;;;;;;5093111;27;20628;-72
2023/10/16 09:59:46;;;;;;;1.63;1.40;;;9.80;86.90;;;;;;5094648;27;20616;-72
2023/10/16 10:02:19;;;;;;;1.63;1.50;;;9.90;86.40;;;;;;5093074;27;20629;-71
2023/10/16 10:04:53;;;;;;;1.20;1.03;;;9.90;85.30;;;;;;5094646;27;21212;-72
2023/10/16 10:07:34;;;;;;;1.13;1.07;;;10.00;85.70;;;;;;5094806;27;20624;-73
2023/10/16 10:10:39;;;;;;;1.80;1.53;;;10.10;85.10;;;;;;5094591;27;20755;-71
2023/10/16 10:12:52;;;;;;;1.30;1.20;;;10.30;84.40;;;;;;5094141;27;20634;-71
2023/10/16 10:15:22;;;;;;;1.73;1.30;;;10.20;82.20;;;;;;5094486;27;20630;-71
2023/10/16 10:17:54;;;;;;;1.70;1.60;;;10.20;82.80;;;;;;5094011;27;20624;-71
2023/10/16 10:20:26;;;;;;;3.70;1.40;;;10.20;85.30;;;;;;5094097;27;20619;-71
2023/10/16 10:22:59;;;;;;;1.20;1.10;;;10.10;84.00;;;;;;5094078;27;20757;-71
2023/10/16 10:25:35;;;;;;;1.60;1.50;;;10.20;82.80;;;;;;5093719;27;20623;-71
2023/10/16 10:28:09;;;;;;;1.43;1.30;;;10.00;84.00;;;;;;5092590;27;20619;-71
2023/10/16 10:30:39;;;;;;;2.27;2.13;;;9.90;86.80;;;;;;5093433;27;20648;-71
2023/10/16 10:33:06;;;;;;;2.10;1.90;;;10.10;84.00;;;;;;5093788;27;20616;-71
2023/10/16 10:35:38;;;;;;;2.20;2.00;;;10.30;83.10;;;;;;5094084;27;20997;-71
2023/10/16 10:38:18;;;;;;;2.00;1.80;;;10.30;83.90;;;;;;5093266;27;20681;-71
2023/10/16 10:41:14;;;;;;;6.10;2.60;;;10.30;81.10;;;;;;5093140;27;20961;-71
2023/10/16 10:43:46;;;;;;;5.73;2.33;;;10.30;81.20;;;;;;5093992;27;20640;-71
2023/10/16 10:46:14;;;;;;;2.90;2.70;;;10.20;82.20;;;;;;5092801;27;20642;-71
2023/10/16 10:48:43;;;;;;;3.60;2.53;;;10.20;81.60;;;;;;5094450;27;21023;-71
2023/10/16 10:51:13;;;;;;;2.20;2.00;;;10.30;83.00;;;;;;5093241;27;20662;-72
2023/10/16 10:53:54;;;;;;;2.27;2.07;;;10.40;81.80;;;;;;5094116;27;21152;-72
2023/10/16 10:56:21;;;;;;;1.67;1.57;;;10.40;81.40;;;;;;5092893;27;20628;-75
2023/10/16 10:58:49;;;;;;;1.90;1.70;;;10.40;82.30;;;;;;5093772;27;20744;-72
2023/10/16 11:01:27;;;;;;;1.53;1.43;;;10.40;84.90;;;;;;5093508;27;20636;-71
2023/10/16 11:03:55;;;;;;;2.57;2.37;;;10.40;82.10;;;;;;5092727;27;20632;-71
2023/10/16 11:06:31;;;;;;;2.80;2.50;;;10.30;83.10;;;;;;5090911;27;20868;-71
2023/10/16 11:09:11;;;;;;;1.93;1.83;;;10.40;81.50;;;;;;5094476;27;20636;-71
2023/10/16 11:11:40;;;;;;;3.00;1.77;;;10.50;81.50;;;;;;5094367;27;20650;-71
2023/10/16 11:14:07;;;;;;;2.83;2.10;;;10.60;82.20;;;;;;5093446;27;20631;-70
2023/10/16 11:16:42;;;;;;;2.43;2.23;;;10.60;80.10;;;;;;5092935;27;20629;-71
2023/10/16 11:19:09;;;;;;;2.30;2.10;;;10.40;81.40;;;;;;5092836;27;21289;-70
2023/10/16 11:21:43;;;;;;;1.90;1.77;;;10.50;83.30;;;;;;5093615;27;20623;-71
2023/10/16 11:24:13;;;;;;;2.80;1.80;;;10.70;81.70;;;;;;5092321;27;20629;-72
2023/10/16 11:26:40;;;;;;;3.10;2.10;;;10.70;79.60;;;;;;5091069;27;20642;-71
2023/10/16 11:29:12;;;;;;;2.37;2.13;;;10.80;80.70;;;;;;5090597;27;20624;-71
2023/10/16 11:31:41;;;;;;;4.77;1.90;;;10.70;80.30;;;;;;5090735;27;20657;-71
2023/10/16 11:34:13;;;;;;;2.30;2.10;;;10.80;78.60;;;;;;5091009;27;20634;-71
2023/10/16 11:36:41;;;;;;;4.83;2.23;;;10.60;79.70;;;;;;5091093;27;20631;-71
2023/10/16 11:39:08;;;;;;;2.10;1.73;;;10.60;80.10;;;;;;5092120;27;20621;-70
2023/10/16 11:41:37;;;;;;;1.90;1.80;;;10.80;79.40;;;;;;5092959;27;20627;-71
2023/10/16 11:44:13;;;;;;;2.00;1.80;;;10.90;79.20;;;;;;5092683;28;20649;-71
2023/10/16 11:46:46;;;;;;;1.93;1.80;;;10.90;79.70;;;;;;5092583;27;20621;-71
2023/10/16 11:49:31;;;;;;;1.43;1.33;;;10.90;77.80;;;;;;5092551;27;20620;-71
2023/10/16 11:52:08;;;;;;;1.63;1.40;;;10.90;79.70;;;;;;5092593;27;20737;-71
2023/10/16 11:54:36;;;;;;;2.43;1.53;;;11.00;79.00;;;;;;5092094;27;20638;-71
2023/10/16 11:57:06;;;;;;;1.77;1.67;;;11.00;79.10;;;;;;5091803;27;20620;-71
2023/10/16 11:59:33;;;;;;;2.50;1.40;;;10.90;76.20;;;;;;5092625;28;20692;-71
2023/10/16 12:02:06;;;;;;;1.50;1.40;;;10.90;77.40;;;;;;5092413;28;20627;-71
2023/10/16 12:04:37;;;;;;;1.83;1.73;;;11.00;77.50;;;;;;5092844;28;21031;-71
2023/10/16 12:07:04;;;;;;;1.20;1.10;;;11.10;77.50;;;;;;5092312;28;20627;-70
2023/10/16 12:09:37;;;;;;;1.87;1.37;;;11.20;77.00;;;;;;5092260;28;21194;-70
2023/10/16 12:12:07;;;;;;;1.70;1.53;;;11.20;76.90;;;;;;5091894;28;20706;-70
2023/10/16 12:14:37;;;;;;;1.37;1.27;;;11.20;76.90;;;;;;5092135;28;20640;-70
2023/10/16 12:17:06;;;;;;;2.53;1.70;;;11.30;77.50;;;;;;5092169;28;20631;-70
2023/10/16 12:19:34;;;;;;;2.93;1.37;;;11.40;77.60;;;;;;5091515;28;20637;-70
2023/10/16 12:22:01;;;;;;;1.70;1.40;;;11.40;76.70;;;;;;5092244;28;21192;-71
2023/10/16 12:24:28;;;;;;;2.00;1.63;;;11.50;76.30;;;;;;5092213;28;20635;-70
2023/10/16 12:26:54;;;;;;;0.70;0.70;;;11.50;74.80;;;;;;5091371;28;20619;-70
2023/10/16 12:29:23;;;;;;;0.80;0.73;;;11.50;70.30;;;;;;5091441;28;20618;-70
2023/10/16 12:31:49;;;;;;;0.80;0.80;;;11.50;64.20;;;;;;5092505;28;20659;-70
2023/10/16 12:34:17;;;;;;;3.23;1.30;;;11.40;64.00;;;;;;5092109;28;21168;-70
2023/10/16 12:36:44;;;;;;;1.03;0.93;;;11.50;65.70;;;;;;5091518;28;20685;-71
2023/10/16 12:39:16;;;;;;;1.43;1.17;;;11.40;68.20;;;;;;5092002;28;20965;-71
2023/10/16 12:41:43;;;;;;;1.43;1.17;;;11.30;67.50;;;;;;5091008;28;20624;-71
2023/10/16 12:44:10;;;;;;;1.90;1.43;;;11.30;68.00;;;;;;5093617;27;20645;-71
2023/10/16 12:46:38;;;;;;;2.00;0.77;;;11.40;68.20;;;;;;5095240;27;20818;-71
2023/10/16 12:49:07;;;;;;;0.93;0.90;;;11.40;68.10;;;;;;5095989;27;20634;-70
2023/10/16 12:51:35;;;;;;;2.10;1.33;;;11.40;69.80;;;;;;5095409;27;20651;-70
2023/10/16 12:54:03;;;;;;;1.33;1.23;;;11.40;72.00;;;;;;5095680;27;20624;-70
2023/10/16 12:56:31;;;;;;;1.50;1.37;;;11.50;73.00;;;;;;5095349;27;20625;-70
2023/10/16 12:58:58;;;;;;;1.83;1.30;;;11.40;74.10;;;;;;5095843;27;20627;-70
2023/10/16 13:01:25;;;;;;;3.90;1.63;;;11.30;72.70;;;;;;5096009;27;20627;-70
2023/10/16 13:03:59;;;;;;;1.53;1.20;;;11.40;70.20;;;;;;5095506;27;20751;-71
2023/10/16 13:06:27;;;;;;;1.80;1.70;;;11.30;71.70;;;;;;5095117;27;20631;-71
2023/10/16 13:08:53;;;;;;;2.10;1.90;;;11.40;72.50;;;;;;5096062;27;20723;-71
2023/10/16 13:11:20;;;;;;;3.10;1.37;;;11.60;72.90;;;;;;5095489;27;20648;-71
2023/10/16 13:13:47;;;;;;;1.70;1.60;;;11.50;73.50;;;;;;5095309;27;20619;-71
2023/10/16 13:16:24;;;;;;;1.53;1.43;;;11.50;71.50;;;;;;5094896;27;20623;-71
2023/10/16 13:18:57;;;;;;;1.40;1.30;;;11.50;73.30;;;;;;5095732;27;20637;-70
2023/10/16 13:21:32;;;;;;;1.67;1.57;;;11.40;71.60;;;;;;5095203;27;20705;-71
2023/10/16 13:24:00;;;;;;;2.47;1.70;;;11.50;71.70;;;;;;5094982;27;20646;-71
2023/10/16 13:26:27;;;;;;;1.77;1.40;;;11.60;72.30;;;;;;5094423;27;21261;-71
2023/10/16 13:28:54;;;;;;;1.60;1.50;;;11.60;73.80;;;;;;5094425;27;21176;-71
2023/10/16 13:31:21;;;;;;;1.40;1.30;;;11.70;73.00;;;;;;5095723;27;20629;-70
2023/10/16 13:33:50;;;;;;;1.50;1.40;;;11.70;72.00;;;;;;5094499;27;20612;-71
2023/10/16 13:36:18;;;;;;;1.47;1.23;;;11.70;72.60;;;;;;5093794;27;21210;-71
2023/10/16 13:38:45;;;;;;;1.63;1.47;;;11.50;73.30;;;;;;5095726;27;20925;-71
2023/10/16 13:41:18;;;;;;;1.33;1.23;;;11.50;72.90;;;;;;5094566;27;20632;-71
2023/10/16 13:43:46;;;;;;;1.33;1.10;;;11.50;74.10;;;;;;5094547;27;20632;-71
2023/10/16 13:46:13;;;;;;;2.10;1.80;;;11.60;73.20;;;;;;5094186;27;20760;-71
2023/10/16 13:48:45;;;;;;;2.30;1.70;;;11.50;72.60;;;;;;5094255;27;20629;-70
2023/10/16 13:51:14;;;;;;;1.27;1.10;;;11.60;72.10;;;;;;5095434;27;20620;-70
2023/10/16 13:53:42;;;;;;;1.63;1.47;;;11.50;71.40;;;;;;5094844;27;20741;-70
2023/10/16 13:56:10;;;;;;;3.50;1.50;;;11.50;72.20;;;;;;5093230;27;20712;-71
2023/10/16 13:58:36;;;;;;;1.30;1.20;;;11.50;71.70;;;;;;5094933;27;20983;-71
2023/10/16 14:01:03;;;;;;;2.10;1.60;;;11.50;72.30;;;;;;5093867;27;20635;-71
2023/10/16 14:03:33;;;;;;;1.50;1.37;;;11.50;72.60;;;;;;5094100;27;20975;-71
2023/10/16 14:06:00;;;;;;;1.60;1.40;;;11.50;73.10;;;;;;5094773;27;20623;-71
2023/10/16 14:08:30;;;;;;;1.20;1.10;;;11.60;72.00;;;;;;5093295;27;21401;-70
2023/10/16 14:11:00;;;;;;;1.40;1.30;;;11.50;70.60;;;;;;5094316;27;20627;-70
2023/10/16 14:13:28;;;;;;;1.50;1.40;;;11.50;70.70;;;;;;5093709;27;20659;-70
2023/10/16 14:16:07;;;;;;;1.20;1.10;;;11.50;71.30;;;;;;5094227;27;20628;-70
2023/10/16 14:18:34;;;;;;;2.37;1.40;;;11.50;71.10;;;;;;5094661;27;20746;-71
2023/10/16 14:21:08;;;;;;;1.27;1.17;;;11.50;70.10;;;;;;5093534;27;21100;-71
2023/10/16 14:23:38;;;;;;;1.20;1.10;;;11.50;71.30;;;;;;5093525;27;20674;-70